sensor_id;sensor_type;location;lat;lon;timestamp;temperature;humidity
24450;DHT22;13349;50.984;5.822;2023-08-06T00:00:37;15.10;99.90
24450;DHT22;13349;50.984;5.822;2023-08-06T00:03:06;15.20;99.90
24450;DHT22;13349;50.984;5.822;2023-08-06T00:05:33;15.20;99.90
24450;DHT22;13349;50.984;5.822;2023-08-06T00:08:00;15.20;99.90
24450;DHT22;13349;50.984;5.822;2023-08-06T00:10:27;15.20;99.90
24450;DHT22;13349;50.984;5.822;2023-08-06T00:12:55;15.20;99.90
24450;DHT22;13349;50.984;5.822;2023-08-06T00:15:22;15.20;99.90
24450;DHT22;13349;50.984;5.822;2023-08-06T00:17:49;15.20;99.90
24450;DHT22;13349;50.984;5.822;2023-08-06T00:20:17;15.10;99.90
24450;DHT22;13349;50.984;5.822;2023-08-06T00:22:44;15.00;99.90
24450;DHT22;13349;50.984;5.822;2023-08-06T00:25:11;15.00;99.90
24450;DHT22;13349;50.984;5.822;2023-08-06T00:27:38;14.90;99.90
24450;DHT22;13349;50.984;5.822;2023-08-06T00:30:05;14.90;99.90
24450;DHT22;13349;50.984;5.822;2023-08-06T00:32:33;14.90;99.90
24450;DHT22;13349;50.984;5.822;2023-08-06T00:35:00;14.90;99.90
24450;DHT22;13349;50.984;5.822;2023-08-06T00:37:29;14.80;99.90
24450;DHT22;13349;50.984;5.822;2023-08-06T00:39:56;14.70;99.90
24450;DHT22;13349;50.984;5.822;2023-08-06T00:42:23;14.70;99.90
24450;DHT22;13349;50.984;5.822;2023-08-06T00:44:50;14.60;99.90
24450;DHT22;13349;50.984;5.822;2023-08-06T00:47:17;14.60;99.90
24450;DHT22;13349;50.984;5.822;2023-08-06T00:49:44;14.60;99.90
24450;DHT22;13349;50.984;5.822;2023-08-06T00:52:11;14.60;99.90
24450;DHT22;13349;50.984;5.822;2023-08-06T00:54:41;14.60;99.90
24450;DHT22;13349;50.984;5.822;2023-08-06T00:57:08;14.50;99.90
24450;DHT22;13349;50.984;5.822;2023-08-06T00:59:36;14.50;99.90
24450;DHT22;13349;50.984;5.822;2023-08-06T01:02:04;14.50;99.90
24450;DHT22;13349;50.984;5.822;2023-08-06T01:04:31;14.40;99.90
24450;DHT22;13349;50.984;5.822;2023-08-06T01:07:04;14.40;99.90
24450;DHT22;13349;50.984;5.822;2023-08-06T01:09:35;14.40;99.90
24450;DHT22;13349;50.984;5.822;2023-08-06T01:12:09;14.50;99.90
24450;DHT22;13349;50.984;5.822;2023-08-06T01:14:44;14.50;99.90
24450;DHT22;13349;50.984;5.822;2023-08-06T01:17:12;14.50;99.90
24450;DHT22;13349;50.984;5.822;2023-08-06T01:19:40;14.50;99.90
24450;DHT22;13349;50.984;5.822;2023-08-06T01:22:09;14.60;99.90
24450;DHT22;13349;50.984;5.822;2023-08-06T01:24:36;14.70;99.90
24450;DHT22;13349;50.984;5.822;2023-08-06T01:27:04;14.70;99.90
24450;DHT22;13349;50.984;5.822;2023-08-06T01:29:33;14.70;99.90
24450;DHT22;13349;50.984;5.822;2023-08-06T01:32:01;14.70;99.90
24450;DHT22;13349;50.984;5.822;2023-08-06T01:34:29;14.70;99.90
24450;DHT22;13349;50.984;5.822;2023-08-06T01:36:57;14.70;99.90
24450;DHT22;13349;50.984;5.822;2023-08-06T01:39:27;14.80;99.90
24450;DHT22;13349;50.984;5.822;2023-08-06T01:41:54;14.80;99.90
24450;DHT22;13349;50.984;5.822;2023-08-06T01:44:21;14.80;99.90
24450;DHT22;13349;50.984;5.822;2023-08-06T01:46:48;14.70;99.90
24450;DHT22;13349;50.984;5.822;2023-08-06T01:49:15;14.70;99.90
24450;DHT22;13349;50.984;5.822;2023-08-06T01:51:43;14.80;99.90
24450;DHT22;13349;50.984;5.822;2023-08-06T01:54:10;14.80;99.90
24450;DHT22;13349;50.984;5.822;2023-08-06T01:56:38;14.70;99.90
24450;DHT22;13349;50.984;5.822;2023-08-06T01:59:05;14.70;99.90
24450;DHT22;13349;50.984;5.822;2023-08-06T02:01:32;14.70;99.90
24450;DHT22;13349;50.984;5.822;2023-08-06T02:03:59;14.60;99.90
24450;DHT22;13349;50.984;5.822;2023-08-06T02:06:27;14.60;99.90
24450;DHT22;13349;50.984;5.822;2023-08-06T02:08:54;14.50;99.90
24450;DHT22;13349;50.984;5.822;2023-08-06T02:11:21;14.60;99.90
24450;DHT22;13349;50.984;5.822;2023-08-06T02:13:49;14.50;99.90
24450;DHT22;13349;50.984;5.822;2023-08-06T02:16:16;14.50;99.90
24450;DHT22;13349;50.984;5.822;2023-08-06T02:18:43;14.50;99.90
24450;DHT22;13349;50.984;5.822;2023-08-06T02:21:10;14.60;99.90
24450;DHT22;13349;50.984;5.822;2023-08-06T02:23:37;14.50;99.90
24450;DHT22;13349;50.984;5.822;2023-08-06T02:26:04;14.50;99.90
24450;DHT22;13349;50.984;5.822;2023-08-06T02:28:31;14.40;99.90
24450;DHT22;13349;50.984;5.822;2023-08-06T02:31:00;14.40;99.90
24450;DHT22;13349;50.984;5.822;2023-08-06T02:33:27;14.40;99.90
24450;DHT22;13349;50.984;5.822;2023-08-06T02:35:58;14.40;99.90
24450;DHT22;13349;50.984;5.822;2023-08-06T02:38:28;14.40;99.90
24450;DHT22;13349;50.984;5.822;2023-08-06T02:40:55;14.30;99.90
24450;DHT22;13349;50.984;5.822;2023-08-06T02:43:22;14.40;99.90
24450;DHT22;13349;50.984;5.822;2023-08-06T02:45:49;14.40;99.90
24450;DHT22;13349;50.984;5.822;2023-08-06T02:48:18;14.40;99.90
24450;DHT22;13349;50.984;5.822;2023-08-06T02:50:45;14.40;99.90
24450;DHT22;13349;50.984;5.822;2023-08-06T02:53:12;14.40;99.90
24450;DHT22;13349;50.984;5.822;2023-08-06T02:55:44;14.40;99.90
24450;DHT22;13349;50.984;5.822;2023-08-06T02:58:12;14.40;99.90
24450;DHT22;13349;50.984;5.822;2023-08-06T03:00:39;14.40;99.90
24450;DHT22;13349;50.984;5.822;2023-08-06T03:03:06;14.40;99.90
24450;DHT22;13349;50.984;5.822;2023-08-06T03:05:34;14.30;99.90
24450;DHT22;13349;50.984;5.822;2023-08-06T03:08:01;14.40;99.90
24450;DHT22;13349;50.984;5.822;2023-08-06T03:10:28;14.40;99.90
24450;DHT22;13349;50.984;5.822;2023-08-06T03:12:55;14.30;99.90
24450;DHT22;13349;50.984;5.822;2023-08-06T03:15:22;14.30;99.90
24450;DHT22;13349;50.984;5.822;2023-08-06T03:17:49;14.30;99.90
24450;DHT22;13349;50.984;5.822;2023-08-06T03:20:16;14.40;99.90
24450;DHT22;13349;50.984;5.822;2023-08-06T03:22:44;14.40;99.90
24450;DHT22;13349;50.984;5.822;2023-08-06T03:25:11;14.40;99.90
24450;DHT22;13349;50.984;5.822;2023-08-06T03:27:38;14.40;99.90
24450;DHT22;13349;50.984;5.822;2023-08-06T03:30:06;14.40;99.90
24450;DHT22;13349;50.984;5.822;2023-08-06T03:32:33;14.40;99.90
24450;DHT22;13349;50.984;5.822;2023-08-06T03:35:00;14.40;99.90
24450;DHT22;13349;50.984;5.822;2023-08-06T03:37:27;14.40;99.90
24450;DHT22;13349;50.984;5.822;2023-08-06T03:39:56;14.40;99.90
24450;DHT22;13349;50.984;5.822;2023-08-06T03:42:23;14.40;99.90
24450;DHT22;13349;50.984;5.822;2023-08-06T03:44:50;14.40;99.90
24450;DHT22;13349;50.984;5.822;2023-08-06T03:47:17;14.50;99.90
24450;DHT22;13349;50.984;5.822;2023-08-06T03:49:43;14.40;99.90
24450;DHT22;13349;50.984;5.822;2023-08-06T03:52:10;14.50;99.90
24450;DHT22;13349;50.984;5.822;2023-08-06T03:54:37;14.50;99.90
24450;DHT22;13349;50.984;5.822;2023-08-06T03:57:06;14.50;99.90
24450;DHT22;13349;50.984;5.822;2023-08-06T03:59:33;14.50;99.90
24450;DHT22;13349;50.984;5.822;2023-08-06T04:02:00;14.50;99.90
24450;DHT22;13349;50.984;5.822;2023-08-06T04:04:27;14.50;99.90
24450;DHT22;13349;50.984;5.822;2023-08-06T04:06:54;14.50;99.90
24450;DHT22;13349;50.984;5.822;2023-08-06T04:09:21;14.40;99.90
24450;DHT22;13349;50.984;5.822;2023-08-06T04:11:48;14.40;99.90
24450;DHT22;13349;50.984;5.822;2023-08-06T04:14:17;14.50;99.90
24450;DHT22;13349;50.984;5.822;2023-08-06T04:16:44;14.50;99.90
24450;DHT22;13349;50.984;5.822;2023-08-06T04:19:11;14.50;99.90
24450;DHT22;13349;50.984;5.822;2023-08-06T04:21:38;14.40;99.90
24450;DHT22;13349;50.984;5.822;2023-08-06T04:24:05;14.50;99.90
24450;DHT22;13349;50.984;5.822;2023-08-06T04:26:32;14.50;99.90
24450;DHT22;13349;50.984;5.822;2023-08-06T04:28:59;14.50;99.90
24450;DHT22;13349;50.984;5.822;2023-08-06T04:31:27;14.40;99.90
24450;DHT22;13349;50.984;5.822;2023-08-06T04:33:55;14.40;99.90
24450;DHT22;13349;50.984;5.822;2023-08-06T04:36:22;14.50;99.90
24450;DHT22;13349;50.984;5.822;2023-08-06T04:38:49;14.50;99.90
24450;DHT22;13349;50.984;5.822;2023-08-06T04:41:16;14.50;99.90
24450;DHT22;13349;50.984;5.822;2023-08-06T04:43:43;14.60;99.90
24450;DHT22;13349;50.984;5.822;2023-08-06T04:46:10;14.60;99.90
24450;DHT22;13349;50.984;5.822;2023-08-06T04:48:39;14.60;99.90
24450;DHT22;13349;50.984;5.822;2023-08-06T04:51:06;14.60;99.90
24450;DHT22;13349;50.984;5.822;2023-08-06T04:53:33;14.60;99.90
24450;DHT22;13349;50.984;5.822;2023-08-06T04:56:00;14.60;99.90
24450;DHT22;13349;50.984;5.822;2023-08-06T04:58:27;14.60;99.90
24450;DHT22;13349;50.984;5.822;2023-08-06T05:00:54;14.60;99.90
24450;DHT22;13349;50.984;5.822;2023-08-06T05:03:21;14.60;99.90
24450;DHT22;13349;50.984;5.822;2023-08-06T05:05:49;14.70;99.90
24450;DHT22;13349;50.984;5.822;2023-08-06T05:08:16;14.70;99.90
24450;DHT22;13349;50.984;5.822;2023-08-06T05:10:44;14.70;99.90
24450;DHT22;13349;50.984;5.822;2023-08-06T05:13:11;14.70;99.90
24450;DHT22;13349;50.984;5.822;2023-08-06T05:15:38;14.70;99.90
24450;DHT22;13349;50.984;5.822;2023-08-06T05:18:07;14.70;99.90
24450;DHT22;13349;50.984;5.822;2023-08-06T05:20:35;14.80;99.90
24450;DHT22;13349;50.984;5.822;2023-08-06T05:23:04;14.80;99.90
24450;DHT22;13349;50.984;5.822;2023-08-06T05:25:31;14.80;99.90
24450;DHT22;13349;50.984;5.822;2023-08-06T05:27:58;14.80;99.90
24450;DHT22;13349;50.984;5.822;2023-08-06T05:30:27;14.80;99.90
24450;DHT22;13349;50.984;5.822;2023-08-06T05:32:54;14.80;99.90
24450;DHT22;13349;50.984;5.822;2023-08-06T05:35:22;14.80;99.90
24450;DHT22;13349;50.984;5.822;2023-08-06T05:37:49;14.80;99.90
24450;DHT22;13349;50.984;5.822;2023-08-06T05:40:18;14.90;99.90
24450;DHT22;13349;50.984;5.822;2023-08-06T05:42:45;15.00;99.90
24450;DHT22;13349;50.984;5.822;2023-08-06T05:45:12;15.00;99.90
24450;DHT22;13349;50.984;5.822;2023-08-06T05:47:39;15.00;99.90
24450;DHT22;13349;50.984;5.822;2023-08-06T05:50:06;15.00;99.90
24450;DHT22;13349;50.984;5.822;2023-08-06T05:52:34;15.10;99.90
24450;DHT22;13349;50.984;5.822;2023-08-06T05:55:01;15.10;99.90
24450;DHT22;13349;50.984;5.822;2023-08-06T05:57:30;15.20;99.90
24450;DHT22;13349;50.984;5.822;2023-08-06T05:59:57;15.10;99.90
24450;DHT22;13349;50.984;5.822;2023-08-06T06:02:24;15.10;99.90
24450;DHT22;13349;50.984;5.822;2023-08-06T06:04:51;15.10;99.90
24450;DHT22;13349;50.984;5.822;2023-08-06T06:07:18;15.10;99.90
24450;DHT22;13349;50.984;5.822;2023-08-06T06:09:45;15.10;99.90
24450;DHT22;13349;50.984;5.822;2023-08-06T06:12:12;15.10;99.90
24450;DHT22;13349;50.984;5.822;2023-08-06T06:14:40;15.10;99.90
24450;DHT22;13349;50.984;5.822;2023-08-06T06:17:07;15.10;99.90
24450;DHT22;13349;50.984;5.822;2023-08-06T06:19:34;15.00;99.90
24450;DHT22;13349;50.984;5.822;2023-08-06T06:22:03;15.00;99.90
24450;DHT22;13349;50.984;5.822;2023-08-06T06:24:30;15.10;99.90
24450;DHT22;13349;50.984;5.822;2023-08-06T06:26:57;15.00;99.90
24450;DHT22;13349;50.984;5.822;2023-08-06T06:29:24;15.00;99.90
24450;DHT22;13349;50.984;5.822;2023-08-06T06:31:52;15.00;99.90
24450;DHT22;13349;50.984;5.822;2023-08-06T06:34:19;15.00;99.90
24450;DHT22;13349;50.984;5.822;2023-08-06T06:36:47;15.00;99.90
24450;DHT22;13349;50.984;5.822;2023-08-06T06:39:15;15.00;99.90
24450;DHT22;13349;50.984;5.822;2023-08-06T06:41:42;15.10;99.90
24450;DHT22;13349;50.984;5.822;2023-08-06T06:44:09;15.00;99.90
24450;DHT22;13349;50.984;5.822;2023-08-06T06:46:36;15.00;99.90
24450;DHT22;13349;50.984;5.822;2023-08-06T06:49:05;15.00;99.90
24450;DHT22;13349;50.984;5.822;2023-08-06T06:51:32;15.00;99.90
24450;DHT22;13349;50.984;5.822;2023-08-06T06:53:59;15.00;99.90
24450;DHT22;13349;50.984;5.822;2023-08-06T06:56:26;15.10;99.90
24450;DHT22;13349;50.984;5.822;2023-08-06T06:58:53;15.10;99.90
24450;DHT22;13349;50.984;5.822;2023-08-06T07:01:19;15.00;99.90
24450;DHT22;13349;50.984;5.822;2023-08-06T07:03:46;15.00;99.90
24450;DHT22;13349;50.984;5.822;2023-08-06T07:06:15;15.10;99.90
24450;DHT22;13349;50.984;5.822;2023-08-06T07:08:43;15.20;99.90
24450;DHT22;13349;50.984;5.822;2023-08-06T07:11:10;15.20;99.90
24450;DHT22;13349;50.984;5.822;2023-08-06T07:13:37;15.20;99.90
24450;DHT22;13349;50.984;5.822;2023-08-06T07:16:04;15.20;99.90
24450;DHT22;13349;50.984;5.822;2023-08-06T07:18:31;15.20;99.90
24450;DHT22;13349;50.984;5.822;2023-08-06T07:20:58;15.10;99.90
24450;DHT22;13349;50.984;5.822;2023-08-06T07:23:27;15.20;99.90
24450;DHT22;13349;50.984;5.822;2023-08-06T07:25:54;15.20;99.90
24450;DHT22;13349;50.984;5.822;2023-08-06T07:28:20;15.20;99.90
24450;DHT22;13349;50.984;5.822;2023-08-06T07:30:48;15.20;99.90
24450;DHT22;13349;50.984;5.822;2023-08-06T07:33:15;14.80;99.90
24450;DHT22;13349;50.984;5.822;2023-08-06T07:35:42;14.50;99.90
24450;DHT22;13349;50.984;5.822;2023-08-06T07:38:08;14.40;99.90
24450;DHT22;13349;50.984;5.822;2023-08-06T07:40:37;14.30;99.90
24450;DHT22;13349;50.984;5.822;2023-08-06T07:43:04;14.20;99.90
24450;DHT22;13349;50.984;5.822;2023-08-06T07:45:32;14.20;99.90
24450;DHT22;13349;50.984;5.822;2023-08-06T07:47:59;14.20;99.90
24450;DHT22;13349;50.984;5.822;2023-08-06T07:50:26;14.10;99.90
24450;DHT22;13349;50.984;5.822;2023-08-06T07:52:53;14.10;99.90
24450;DHT22;13349;50.984;5.822;2023-08-06T07:55:20;14.10;99.90
24450;DHT22;13349;50.984;5.822;2023-08-06T07:57:48;14.20;99.90
24450;DHT22;13349;50.984;5.822;2023-08-06T08:00:15;14.20;99.90
24450;DHT22;13349;50.984;5.822;2023-08-06T08:02:42;14.20;99.90
24450;DHT22;13349;50.984;5.822;2023-08-06T08:05:11;14.20;99.90
24450;DHT22;13349;50.984;5.822;2023-08-06T08:07:38;14.20;99.90
24450;DHT22;13349;50.984;5.822;2023-08-06T08:10:06;14.20;99.90
24450;DHT22;13349;50.984;5.822;2023-08-06T08:12:33;14.20;99.90
24450;DHT22;13349;50.984;5.822;2023-08-06T08:15:02;14.20;99.90
24450;DHT22;13349;50.984;5.822;2023-08-06T08:17:29;14.20;99.90
24450;DHT22;13349;50.984;5.822;2023-08-06T08:19:56;14.20;99.90
24450;DHT22;13349;50.984;5.822;2023-08-06T08:22:23;14.20;99.90
24450;DHT22;13349;50.984;5.822;2023-08-06T08:24:50;14.20;99.90
24450;DHT22;13349;50.984;5.822;2023-08-06T08:27:17;14.20;99.90
24450;DHT22;13349;50.984;5.822;2023-08-06T08:29:44;14.20;99.90
24450;DHT22;13349;50.984;5.822;2023-08-06T08:32:12;14.30;99.90
24450;DHT22;13349;50.984;5.822;2023-08-06T08:34:39;14.20;99.90
24450;DHT22;13349;50.984;5.822;2023-08-06T08:37:06;14.20;99.90
24450;DHT22;13349;50.984;5.822;2023-08-06T08:39:33;14.20;99.90
24450;DHT22;13349;50.984;5.822;2023-08-06T08:42:00;14.30;99.90
24450;DHT22;13349;50.984;5.822;2023-08-06T08:44:29;14.40;99.90
24450;DHT22;13349;50.984;5.822;2023-08-06T08:46:57;14.40;99.90
24450;DHT22;13349;50.984;5.822;2023-08-06T08:49:26;14.40;99.90
24450;DHT22;13349;50.984;5.822;2023-08-06T08:51:54;14.40;99.90
24450;DHT22;13349;50.984;5.822;2023-08-06T08:54:21;14.40;99.90
24450;DHT22;13349;50.984;5.822;2023-08-06T08:56:49;14.30;99.90
24450;DHT22;13349;50.984;5.822;2023-08-06T08:59:16;14.30;99.90
24450;DHT22;13349;50.984;5.822;2023-08-06T09:01:44;14.30;99.90
24450;DHT22;13349;50.984;5.822;2023-08-06T09:04:15;14.30;99.90
24450;DHT22;13349;50.984;5.822;2023-08-06T09:06:45;14.40;99.90
24450;DHT22;13349;50.984;5.822;2023-08-06T09:09:13;14.40;99.90
24450;DHT22;13349;50.984;5.822;2023-08-06T09:11:43;14.50;99.90
24450;DHT22;13349;50.984;5.822;2023-08-06T09:14:11;14.60;99.90
24450;DHT22;13349;50.984;5.822;2023-08-06T09:16:38;14.70;99.90
24450;DHT22;13349;50.984;5.822;2023-08-06T09:19:06;14.70;99.90
24450;DHT22;13349;50.984;5.822;2023-08-06T22:54:04;13.00;99.90
24450;DHT22;13349;50.984;5.822;2023-08-06T22:56:31;12.90;99.90
24450;DHT22;13349;50.984;5.822;2023-08-06T22:59:00;12.90;99.90
24450;DHT22;13349;50.984;5.822;2023-08-06T23:01:27;12.90;99.90
24450;DHT22;13349;50.984;5.822;2023-08-06T23:03:54;12.90;99.90
24450;DHT22;13349;50.984;5.822;2023-08-06T23:06:21;12.90;99.90
24450;DHT22;13349;50.984;5.822;2023-08-06T23:08:48;12.90;99.90
24450;DHT22;13349;50.984;5.822;2023-08-06T23:11:16;12.90;99.90
24450;DHT22;13349;50.984;5.822;2023-08-06T23:13:43;12.90;99.90
24450;DHT22;13349;50.984;5.822;2023-08-06T23:16:10;12.90;99.90
24450;DHT22;13349;50.984;5.822;2023-08-06T23:18:38;12.90;99.90
24450;DHT22;13349;50.984;5.822;2023-08-06T23:21:05;12.90;99.90
24450;DHT22;13349;50.984;5.822;2023-08-06T23:23:32;12.90;99.90
24450;DHT22;13349;50.984;5.822;2023-08-06T23:25:59;12.90;99.90
24450;DHT22;13349;50.984;5.822;2023-08-06T23:28:27;12.90;99.90
24450;DHT22;13349;50.984;5.822;2023-08-06T23:30:54;12.90;99.90
24450;DHT22;13349;50.984;5.822;2023-08-06T23:33:21;12.90;99.90
24450;DHT22;13349;50.984;5.822;2023-08-06T23:35:48;12.90;99.90
24450;DHT22;13349;50.984;5.822;2023-08-06T23:38:15;12.90;99.90
24450;DHT22;13349;50.984;5.822;2023-08-06T23:40:42;12.90;99.90
24450;DHT22;13349;50.984;5.822;2023-08-06T23:43:10;12.90;99.90
24450;DHT22;13349;50.984;5.822;2023-08-06T23:45:38;12.90;99.90
24450;DHT22;13349;50.984;5.822;2023-08-06T23:48:05;13.00;99.90
24450;DHT22;13349;50.984;5.822;2023-08-06T23:50:32;13.00;99.90
24450;DHT22;13349;50.984;5.822;2023-08-06T23:52:59;13.00;99.90
24450;DHT22;13349;50.984;5.822;2023-08-06T23:55:26;13.10;99.90
24450;DHT22;13349;50.984;5.822;2023-08-06T23:57:55;13.10;99.90
